sensor_id;sensor_type;location;lat;lon;timestamp;temperature;humidity
20091;DHT22;10205;49.678;6.560;2022-09-03T00:02:12;26.10;37.40
20091;DHT22;10205;49.678;6.560;2022-09-03T00:04:52;26.00;37.40
20091;DHT22;10205;49.678;6.560;2022-09-03T00:07:41;26.00;37.60
20091;DHT22;10205;49.678;6.560;2022-09-03T00:10:18;26.00;37.70
20091;DHT22;10205;49.678;6.560;2022-09-03T00:12:53;25.90;37.70
20091;DHT22;10205;49.678;6.560;2022-09-03T00:15:24;25.90;37.80
20091;DHT22;10205;49.678;6.560;2022-09-03T00:17:56;25.90;37.80
20091;DHT22;10205;49.678;6.560;2022-09-03T00:20:32;25.90;37.70
20091;DHT22;10205;49.678;6.560;2022-09-03T00:23:04;25.90;37.80
20091;DHT22;10205;49.678;6.560;2022-09-03T00:25:41;25.90;37.80
20091;DHT22;10205;49.678;6.560;2022-09-03T00:28:14;25.80;38.60
20091;DHT22;10205;49.678;6.560;2022-09-03T00:30:47;25.80;38.00
20091;DHT22;10205;49.678;6.560;2022-09-03T00:33:26;25.80;38.10
20091;DHT22;10205;49.678;6.560;2022-09-03T00:36:04;25.80;38.00
20091;DHT22;10205;49.678;6.560;2022-09-03T00:38:37;25.80;38.20
20091;DHT22;10205;49.678;6.560;2022-09-03T00:41:08;25.70;38.10
20091;DHT22;10205;49.678;6.560;2022-09-03T00:44:01;25.70;38.30
20091;DHT22;10205;49.678;6.560;2022-09-03T00:46:53;25.70;38.40
20091;DHT22;10205;49.678;6.560;2022-09-03T00:49:35;25.70;38.40
20091;DHT22;10205;49.678;6.560;2022-09-03T00:52:18;25.70;38.40
20091;DHT22;10205;49.678;6.560;2022-09-03T00:55:02;25.60;38.40
20091;DHT22;10205;49.678;6.560;2022-09-03T00:57:44;25.60;38.50
20091;DHT22;10205;49.678;6.560;2022-09-03T01:00:22;25.60;38.60
20091;DHT22;10205;49.678;6.560;2022-09-03T01:03:00;25.60;38.50
20091;DHT22;10205;49.678;6.560;2022-09-03T01:05:59;25.60;38.70
20091;DHT22;10205;49.678;6.560;2022-09-03T01:11:46;25.50;38.80
20091;DHT22;10205;49.678;6.560;2022-09-03T01:14:30;25.50;38.90
20091;DHT22;10205;49.678;6.560;2022-09-03T01:17:19;25.50;39.00
20091;DHT22;10205;49.678;6.560;2022-09-03T01:20:11;25.50;39.00
20091;DHT22;10205;49.678;6.560;2022-09-03T01:26:09;25.40;39.20
20091;DHT22;10205;49.678;6.560;2022-09-03T01:28:58;25.40;39.30
20091;DHT22;10205;49.678;6.560;2022-09-03T01:31:39;25.40;39.30
20091;DHT22;10205;49.678;6.560;2022-09-03T01:34:20;25.30;39.40
20091;DHT22;10205;49.678;6.560;2022-09-03T01:37:05;25.30;39.40
20091;DHT22;10205;49.678;6.560;2022-09-03T01:39:48;25.30;39.50
20091;DHT22;10205;49.678;6.560;2022-09-03T01:42:35;25.30;39.60
20091;DHT22;10205;49.678;6.560;2022-09-03T01:45:35;25.30;39.70
20091;DHT22;10205;49.678;6.560;2022-09-03T01:48:18;25.30;39.70
20091;DHT22;10205;49.678;6.560;2022-09-03T01:51:01;25.20;39.80
20091;DHT22;10205;49.678;6.560;2022-09-03T01:57:06;25.20;40.00
20091;DHT22;10205;49.678;6.560;2022-09-03T01:59:58;25.20;40.00
20091;DHT22;10205;49.678;6.560;2022-09-03T02:02:31;25.10;40.00
20091;DHT22;10205;49.678;6.560;2022-09-03T02:05:02;25.10;40.00
20091;DHT22;10205;49.678;6.560;2022-09-03T02:07:36;25.10;40.20
20091;DHT22;10205;49.678;6.560;2022-09-03T02:10:07;25.10;40.30
20091;DHT22;10205;49.678;6.560;2022-09-03T02:12:38;25.00;40.30
20091;DHT22;10205;49.678;6.560;2022-09-03T02:15:10;25.00;41.30
20091;DHT22;10205;49.678;6.560;2022-09-03T02:17:43;25.00;41.50
20091;DHT22;10205;49.678;6.560;2022-09-03T02:20:18;25.00;40.80
20091;DHT22;10205;49.678;6.560;2022-09-03T02:22:48;25.00;40.70
20091;DHT22;10205;49.678;6.560;2022-09-03T02:25:20;24.90;40.80
20091;DHT22;10205;49.678;6.560;2022-09-03T02:27:50;24.90;40.80
20091;DHT22;10205;49.678;6.560;2022-09-03T02:30:18;24.90;40.80
20091;DHT22;10205;49.678;6.560;2022-09-03T02:32:47;24.90;41.00
20091;DHT22;10205;49.678;6.560;2022-09-03T02:35:14;24.90;41.10
20091;DHT22;10205;49.678;6.560;2022-09-03T02:37:41;24.90;41.30
20091;DHT22;10205;49.678;6.560;2022-09-03T02:40:09;24.80;41.50
20091;DHT22;10205;49.678;6.560;2022-09-03T02:45:23;24.80;41.40
20091;DHT22;10205;49.678;6.560;2022-09-03T02:47:56;24.80;41.90
20091;DHT22;10205;49.678;6.560;2022-09-03T02:50:26;24.70;41.50
20091;DHT22;10205;49.678;6.560;2022-09-03T02:52:53;24.70;41.50
20091;DHT22;10205;49.678;6.560;2022-09-03T02:55:20;24.70;42.20
20091;DHT22;10205;49.678;6.560;2022-09-03T02:57:47;24.70;41.60
20091;DHT22;10205;49.678;6.560;2022-09-03T03:00:14;24.70;41.90
20091;DHT22;10205;49.678;6.560;2022-09-03T03:02:43;24.60;41.80
20091;DHT22;10205;49.678;6.560;2022-09-03T03:05:19;24.60;41.90
20091;DHT22;10205;49.678;6.560;2022-09-03T03:07:56;24.60;42.10
20091;DHT22;10205;49.678;6.560;2022-09-03T03:10:23;24.60;41.90
20091;DHT22;10205;49.678;6.560;2022-09-03T03:12:50;24.60;41.90
20091;DHT22;10205;49.678;6.560;2022-09-03T03:15:17;24.50;41.90
20091;DHT22;10205;49.678;6.560;2022-09-03T03:17:44;24.50;42.00
20091;DHT22;10205;49.678;6.560;2022-09-03T03:20:13;24.50;42.10
20091;DHT22;10205;49.678;6.560;2022-09-03T03:22:40;24.50;42.20
20091;DHT22;10205;49.678;6.560;2022-09-03T03:25:08;24.50;42.30
20091;DHT22;10205;49.678;6.560;2022-09-03T03:27:35;24.40;43.00
20091;DHT22;10205;49.678;6.560;2022-09-03T03:30:07;24.40;42.20
20091;DHT22;10205;49.678;6.560;2022-09-03T03:32:38;24.40;42.30
20091;DHT22;10205;49.678;6.560;2022-09-03T03:35:06;24.40;42.50
20091;DHT22;10205;49.678;6.560;2022-09-03T03:37:35;24.40;42.80
20091;DHT22;10205;49.678;6.560;2022-09-03T03:40:02;24.30;44.20
20091;DHT22;10205;49.678;6.560;2022-09-03T03:42:32;24.30;42.80
20091;DHT22;10205;49.678;6.560;2022-09-03T03:45:00;24.30;43.00
20091;DHT22;10205;49.678;6.560;2022-09-03T03:47:29;24.30;42.90
20091;DHT22;10205;49.678;6.560;2022-09-03T03:49:56;24.20;43.00
20091;DHT22;10205;49.678;6.560;2022-09-03T03:52:25;24.20;42.90
20091;DHT22;10205;49.678;6.560;2022-09-03T03:54:54;24.20;42.90
20091;DHT22;10205;49.678;6.560;2022-09-03T03:57:22;24.20;43.10
20091;DHT22;10205;49.678;6.560;2022-09-03T03:59:50;24.20;43.10
20091;DHT22;10205;49.678;6.560;2022-09-03T04:02:17;24.10;43.10
20091;DHT22;10205;49.678;6.560;2022-09-03T04:04:44;24.10;43.80
20091;DHT22;10205;49.678;6.560;2022-09-03T04:07:11;24.10;43.10
20091;DHT22;10205;49.678;6.560;2022-09-03T04:09:39;24.00;43.20
20091;DHT22;10205;49.678;6.560;2022-09-03T04:12:07;24.00;43.20
20091;DHT22;10205;49.678;6.560;2022-09-03T04:14:34;24.00;43.30
20091;DHT22;10205;49.678;6.560;2022-09-03T04:17:02;24.00;44.20
20091;DHT22;10205;49.678;6.560;2022-09-03T04:19:29;24.00;43.70
20091;DHT22;10205;49.678;6.560;2022-09-03T04:21:56;23.90;44.00
20091;DHT22;10205;49.678;6.560;2022-09-03T04:24:23;23.90;44.00
20091;DHT22;10205;49.678;6.560;2022-09-03T04:26:53;23.80;43.90
20091;DHT22;10205;49.678;6.560;2022-09-03T04:29:21;23.80;44.00
20091;DHT22;10205;49.678;6.560;2022-09-03T04:31:49;23.80;43.90
20091;DHT22;10205;49.678;6.560;2022-09-03T04:34:34;23.80;43.90
20091;DHT22;10205;49.678;6.560;2022-09-03T04:37:01;23.70;43.90
20091;DHT22;10205;49.678;6.560;2022-09-03T04:39:28;23.70;44.70
20091;DHT22;10205;49.678;6.560;2022-09-03T04:41:55;23.70;45.50
20091;DHT22;10205;49.678;6.560;2022-09-03T04:44:23;23.70;46.80
20091;DHT22;10205;49.678;6.560;2022-09-03T04:46:50;23.70;46.10
20091;DHT22;10205;49.678;6.560;2022-09-03T04:49:17;23.60;45.00
20091;DHT22;10205;49.678;6.560;2022-09-03T04:51:45;23.60;45.40
20091;DHT22;10205;49.678;6.560;2022-09-03T04:54:12;23.50;45.00
20091;DHT22;10205;49.678;6.560;2022-09-03T04:56:39;23.50;44.90
20091;DHT22;10205;49.678;6.560;2022-09-03T04:59:07;23.50;44.90
20091;DHT22;10205;49.678;6.560;2022-09-03T05:01:38;23.50;44.90
20091;DHT22;10205;49.678;6.560;2022-09-03T05:04:07;23.50;45.00
20091;DHT22;10205;49.678;6.560;2022-09-03T05:06:35;23.40;45.10
20091;DHT22;10205;49.678;6.560;2022-09-03T05:09:03;23.40;45.10
20091;DHT22;10205;49.678;6.560;2022-09-03T05:11:31;23.40;45.00
20091;DHT22;10205;49.678;6.560;2022-09-03T05:13:59;23.40;45.00
20091;DHT22;10205;49.678;6.560;2022-09-03T05:16:27;23.40;45.10
20091;DHT22;10205;49.678;6.560;2022-09-03T05:18:58;23.40;45.10
20091;DHT22;10205;49.678;6.560;2022-09-03T05:21:26;23.40;45.20
20091;DHT22;10205;49.678;6.560;2022-09-03T05:23:54;23.30;45.60
20091;DHT22;10205;49.678;6.560;2022-09-03T05:26:23;23.30;45.90
20091;DHT22;10205;49.678;6.560;2022-09-03T05:28:54;23.30;46.10
20091;DHT22;10205;49.678;6.560;2022-09-03T05:31:23;23.20;45.30
20091;DHT22;10205;49.678;6.560;2022-09-03T05:33:53;23.20;45.40
20091;DHT22;10205;49.678;6.560;2022-09-03T05:36:26;23.20;45.40
20091;DHT22;10205;49.678;6.560;2022-09-03T05:38:54;23.10;45.40
20091;DHT22;10205;49.678;6.560;2022-09-03T05:41:22;23.10;45.40
20091;DHT22;10205;49.678;6.560;2022-09-03T05:43:53;23.10;45.50
20091;DHT22;10205;49.678;6.560;2022-09-03T05:46:22;23.10;45.70
20091;DHT22;10205;49.678;6.560;2022-09-03T05:48:52;23.10;45.60
20091;DHT22;10205;49.678;6.560;2022-09-03T05:51:19;23.10;45.50
20091;DHT22;10205;49.678;6.560;2022-09-03T05:53:48;23.10;45.50
20091;DHT22;10205;49.678;6.560;2022-09-03T05:56:17;23.00;45.60
20091;DHT22;10205;49.678;6.560;2022-09-03T05:58:46;23.00;45.50
20091;DHT22;10205;49.678;6.560;2022-09-03T06:01:15;23.00;46.20
20091;DHT22;10205;49.678;6.560;2022-09-03T06:03:46;23.00;47.40
20091;DHT22;10205;49.678;6.560;2022-09-03T06:06:20;23.00;47.50
20091;DHT22;10205;49.678;6.560;2022-09-03T06:08:51;23.00;46.40
20091;DHT22;10205;49.678;6.560;2022-09-03T06:11:19;23.00;46.40
20091;DHT22;10205;49.678;6.560;2022-09-03T06:13:52;22.90;46.10
20091;DHT22;10205;49.678;6.560;2022-09-03T06:16:19;22.90;46.10
20091;DHT22;10205;49.678;6.560;2022-09-03T06:18:47;22.90;46.10
20091;DHT22;10205;49.678;6.560;2022-09-03T06:21:14;22.80;47.90
20091;DHT22;10205;49.678;6.560;2022-09-03T06:23:41;22.80;46.70
20091;DHT22;10205;49.678;6.560;2022-09-03T06:26:11;22.80;46.50
20091;DHT22;10205;49.678;6.560;2022-09-03T06:28:41;22.80;46.80
20091;DHT22;10205;49.678;6.560;2022-09-03T06:31:11;22.70;46.70
20091;DHT22;10205;49.678;6.560;2022-09-03T06:33:40;22.80;46.60
20091;DHT22;10205;49.678;6.560;2022-09-03T06:36:09;22.70;46.50
20091;DHT22;10205;49.678;6.560;2022-09-03T06:38:39;22.70;46.50
20091;DHT22;10205;49.678;6.560;2022-09-03T06:41:08;22.70;47.80
20091;DHT22;10205;49.678;6.560;2022-09-03T06:43:40;22.70;48.00
20091;DHT22;10205;49.678;6.560;2022-09-03T06:46:10;22.70;48.40
20091;DHT22;10205;49.678;6.560;2022-09-03T06:48:41;22.70;47.70
20091;DHT22;10205;49.678;6.560;2022-09-03T06:51:10;22.60;48.80
20091;DHT22;10205;49.678;6.560;2022-09-03T06:53:39;22.60;48.00
20091;DHT22;10205;49.678;6.560;2022-09-03T06:56:11;22.60;47.70
20091;DHT22;10205;49.678;6.560;2022-09-03T06:58:42;22.60;48.00
20091;DHT22;10205;49.678;6.560;2022-09-03T07:01:11;22.60;47.90
20091;DHT22;10205;49.678;6.560;2022-09-03T07:03:42;22.60;47.90
20091;DHT22;10205;49.678;6.560;2022-09-03T07:06:13;22.50;48.10
20091;DHT22;10205;49.678;6.560;2022-09-03T07:08:41;22.50;47.90
20091;DHT22;10205;49.678;6.560;2022-09-03T07:11:12;22.50;48.50
20091;DHT22;10205;49.678;6.560;2022-09-03T07:13:45;22.50;48.40
20091;DHT22;10205;49.678;6.560;2022-09-03T07:16:15;22.50;48.00
20091;DHT22;10205;49.678;6.560;2022-09-03T07:18:44;22.50;48.00
20091;DHT22;10205;49.678;6.560;2022-09-03T07:21:14;22.50;48.20
20091;DHT22;10205;49.678;6.560;2022-09-03T07:23:42;22.50;48.10
20091;DHT22;10205;49.678;6.560;2022-09-03T07:26:14;22.50;48.80
20091;DHT22;10205;49.678;6.560;2022-09-03T07:28:44;22.50;49.60
20091;DHT22;10205;49.678;6.560;2022-09-03T07:31:15;22.50;49.20
20091;DHT22;10205;49.678;6.560;2022-09-03T07:33:45;22.50;48.70
20091;DHT22;10205;49.678;6.560;2022-09-03T07:36:14;22.50;49.80
20091;DHT22;10205;49.678;6.560;2022-09-03T07:38:43;22.50;49.00
20091;DHT22;10205;49.678;6.560;2022-09-03T07:41:13;22.50;49.30
20091;DHT22;10205;49.678;6.560;2022-09-03T07:43:44;22.50;48.80
20091;DHT22;10205;49.678;6.560;2022-09-03T07:46:13;22.50;50.80
20091;DHT22;10205;49.678;6.560;2022-09-03T07:48:45;22.50;50.10
20091;DHT22;10205;49.678;6.560;2022-09-03T07:51:15;22.50;50.30
20091;DHT22;10205;49.678;6.560;2022-09-03T07:53:43;22.40;50.60
20091;DHT22;10205;49.678;6.560;2022-09-03T07:56:10;22.40;50.80
20091;DHT22;10205;49.678;6.560;2022-09-03T07:58:39;22.40;50.50
20091;DHT22;10205;49.678;6.560;2022-09-03T08:01:09;22.30;50.50
20091;DHT22;10205;49.678;6.560;2022-09-03T08:03:38;22.30;50.40
20091;DHT22;10205;49.678;6.560;2022-09-03T08:06:10;22.40;50.20
20091;DHT22;10205;49.678;6.560;2022-09-03T08:08:38;22.40;50.20
20091;DHT22;10205;49.678;6.560;2022-09-03T08:11:06;22.40;51.00
20091;DHT22;10205;49.678;6.560;2022-09-03T08:13:35;22.30;50.50
20091;DHT22;10205;49.678;6.560;2022-09-03T08:16:07;22.40;50.40
20091;DHT22;10205;49.678;6.560;2022-09-03T08:18:35;22.40;50.60
20091;DHT22;10205;49.678;6.560;2022-09-03T08:21:05;22.40;50.00
20091;DHT22;10205;49.678;6.560;2022-09-03T08:23:36;22.50;51.20
20091;DHT22;10205;49.678;6.560;2022-09-03T08:26:04;22.50;50.60
20091;DHT22;10205;49.678;6.560;2022-09-03T08:28:32;22.50;51.20
20091;DHT22;10205;49.678;6.560;2022-09-03T08:31:06;22.50;51.60
20091;DHT22;10205;49.678;6.560;2022-09-03T08:33:36;22.60;52.00
20091;DHT22;10205;49.678;6.560;2022-09-03T08:36:05;22.60;50.90
20091;DHT22;10205;49.678;6.560;2022-09-03T08:38:34;22.70;52.40
20091;DHT22;10205;49.678;6.560;2022-09-03T08:41:07;22.70;52.40
20091;DHT22;10205;49.678;6.560;2022-09-03T08:44:05;22.80;53.20
20091;DHT22;10205;49.678;6.560;2022-09-03T08:46:48;22.80;52.10
20091;DHT22;10205;49.678;6.560;2022-09-03T08:49:23;22.90;53.10
20091;DHT22;10205;49.678;6.560;2022-09-03T08:51:55;22.90;52.30
20091;DHT22;10205;49.678;6.560;2022-09-03T08:54:29;23.10;52.40
20091;DHT22;10205;49.678;6.560;2022-09-03T08:56:59;23.10;53.40
20091;DHT22;10205;49.678;6.560;2022-09-03T08:59:29;23.20;53.30
20091;DHT22;10205;49.678;6.560;2022-09-03T09:02:05;23.30;53.70
20091;DHT22;10205;49.678;6.560;2022-09-03T09:04:52;23.40;53.20
20091;DHT22;10205;49.678;6.560;2022-09-03T09:07:29;23.50;54.00
20091;DHT22;10205;49.678;6.560;2022-09-03T09:10:07;23.60;53.80
20091;DHT22;10205;49.678;6.560;2022-09-03T09:12:45;23.70;53.10
20091;DHT22;10205;49.678;6.560;2022-09-03T09:15:39;23.80;53.10
20091;DHT22;10205;49.678;6.560;2022-09-03T09:18:20;23.90;53.50
20091;DHT22;10205;49.678;6.560;2022-09-03T09:21:01;24.00;53.50
20091;DHT22;10205;49.678;6.560;2022-09-03T09:23:39;24.10;53.20
20091;DHT22;10205;49.678;6.560;2022-09-03T09:26:14;24.20;52.60
20091;DHT22;10205;49.678;6.560;2022-09-03T09:28:44;24.30;53.00
20091;DHT22;10205;49.678;6.560;2022-09-03T09:31:14;24.40;52.90
20091;DHT22;10205;49.678;6.560;2022-09-03T09:33:44;24.50;53.10
20091;DHT22;10205;49.678;6.560;2022-09-03T09:36:13;24.60;52.90
20091;DHT22;10205;49.678;6.560;2022-09-03T09:38:44;24.70;52.60
20091;DHT22;10205;49.678;6.560;2022-09-03T09:41:15;24.80;52.60
20091;DHT22;10205;49.678;6.560;2022-09-03T09:43:45;24.90;52.60
20091;DHT22;10205;49.678;6.560;2022-09-03T09:46:19;25.00;51.90
20091;DHT22;10205;49.678;6.560;2022-09-03T09:48:52;25.10;51.90
20091;DHT22;10205;49.678;6.560;2022-09-03T09:51:22;25.20;52.20
20091;DHT22;10205;49.678;6.560;2022-09-03T09:54:00;25.30;51.70
20091;DHT22;10205;49.678;6.560;2022-09-03T09:56:29;25.30;51.10
20091;DHT22;10205;49.678;6.560;2022-09-03T09:59:04;25.40;51.20
20091;DHT22;10205;49.678;6.560;2022-09-03T10:01:33;25.50;51.40
20091;DHT22;10205;49.678;6.560;2022-09-03T10:04:10;25.50;51.10
20091;DHT22;10205;49.678;6.560;2022-09-03T10:06:40;25.60;51.70
20091;DHT22;10205;49.678;6.560;2022-09-03T10:09:23;25.70;51.80
20091;DHT22;10205;49.678;6.560;2022-09-03T10:12:02;25.80;50.90
20091;DHT22;10205;49.678;6.560;2022-09-03T10:14:40;25.90;51.10
20091;DHT22;10205;49.678;6.560;2022-09-03T10:17:18;26.00;51.10
20091;DHT22;10205;49.678;6.560;2022-09-03T10:19:55;26.10;51.00
20091;DHT22;10205;49.678;6.560;2022-09-03T10:22:51;26.20;50.60
20091;DHT22;10205;49.678;6.560;2022-09-03T10:25:25;26.30;50.50
20091;DHT22;10205;49.678;6.560;2022-09-03T10:28:03;26.30;50.10
20091;DHT22;10205;49.678;6.560;2022-09-03T10:30:40;26.40;50.00
20091;DHT22;10205;49.678;6.560;2022-09-03T10:33:21;26.50;50.10
20091;DHT22;10205;49.678;6.560;2022-09-03T10:36:00;26.60;49.80
20091;DHT22;10205;49.678;6.560;2022-09-03T10:38:39;26.60;49.40
20091;DHT22;10205;49.678;6.560;2022-09-03T10:41:18;26.70;49.50
20091;DHT22;10205;49.678;6.560;2022-09-03T10:44:19;26.80;49.30
20091;DHT22;10205;49.678;6.560;2022-09-03T10:47:11;26.90;49.40
20091;DHT22;10205;49.678;6.560;2022-09-03T10:49:58;27.10;49.20
20091;DHT22;10205;49.678;6.560;2022-09-03T10:55:40;27.20;48.70
20091;DHT22;10205;49.678;6.560;2022-09-03T10:58:29;27.30;48.60
20091;DHT22;10205;49.678;6.560;2022-09-03T11:01:13;27.40;48.40
20091;DHT22;10205;49.678;6.560;2022-09-03T11:03:48;27.50;48.60
20091;DHT22;10205;49.678;6.560;2022-09-03T11:06:28;27.60;48.70
20091;DHT22;10205;49.678;6.560;2022-09-03T11:09:10;27.60;48.50
20091;DHT22;10205;49.678;6.560;2022-09-03T11:11:46;27.60;47.90
20091;DHT22;10205;49.678;6.560;2022-09-03T11:14:24;27.70;47.70
20091;DHT22;10205;49.678;6.560;2022-09-03T11:17:02;27.80;47.40
20091;DHT22;10205;49.678;6.560;2022-09-03T11:19:41;27.80;47.10
20091;DHT22;10205;49.678;6.560;2022-09-03T11:22:16;27.80;48.20
20091;DHT22;10205;49.678;6.560;2022-09-03T11:24:53;27.80;48.20
20091;DHT22;10205;49.678;6.560;2022-09-03T11:27:30;27.90;48.00
20091;DHT22;10205;49.678;6.560;2022-09-03T11:30:12;27.90;47.90
20091;DHT22;10205;49.678;6.560;2022-09-03T11:32:51;28.00;47.80
20091;DHT22;10205;49.678;6.560;2022-09-03T11:35:26;28.00;48.20
20091;DHT22;10205;49.678;6.560;2022-09-03T11:37:59;28.10;47.50
20091;DHT22;10205;49.678;6.560;2022-09-03T11:40:32;28.00;47.00
20091;DHT22;10205;49.678;6.560;2022-09-03T11:43:06;28.10;46.80
20091;DHT22;10205;49.678;6.560;2022-09-03T11:45:38;28.10;46.40
20091;DHT22;10205;49.678;6.560;2022-09-03T11:48:32;28.10;46.80
20091;DHT22;10205;49.678;6.560;2022-09-03T11:51:02;28.10;47.10
20091;DHT22;10205;49.678;6.560;2022-09-03T11:53:38;28.10;47.40
20091;DHT22;10205;49.678;6.560;2022-09-03T11:56:18;28.10;47.80
20091;DHT22;10205;49.678;6.560;2022-09-03T11:58:46;28.10;48.80
20091;DHT22;10205;49.678;6.560;2022-09-03T12:01:26;28.10;50.60
20091;DHT22;10205;49.678;6.560;2022-09-03T12:03:57;28.00;49.90
20091;DHT22;10205;49.678;6.560;2022-09-03T12:09:54;27.80;50.60
20091;DHT22;10205;49.678;6.560;2022-09-03T12:12:44;27.80;50.30
20091;DHT22;10205;49.678;6.560;2022-09-03T12:15:28;27.70;50.80
20091;DHT22;10205;49.678;6.560;2022-09-03T12:18:18;27.70;51.30
20091;DHT22;10205;49.678;6.560;2022-09-03T12:21:00;27.60;51.10
20091;DHT22;10205;49.678;6.560;2022-09-03T12:23:31;27.50;49.70
20091;DHT22;10205;49.678;6.560;2022-09-03T12:26:08;27.50;50.70
20091;DHT22;10205;49.678;6.560;2022-09-03T12:28:42;27.50;51.10
20091;DHT22;10205;49.678;6.560;2022-09-03T12:31:15;27.40;49.90
20091;DHT22;10205;49.678;6.560;2022-09-03T12:33:51;27.50;51.40
20091;DHT22;10205;49.678;6.560;2022-09-03T12:36:20;27.40;50.30
20091;DHT22;10205;49.678;6.560;2022-09-03T12:38:48;27.40;49.80
20091;DHT22;10205;49.678;6.560;2022-09-03T12:41:20;27.40;49.80
20091;DHT22;10205;49.678;6.560;2022-09-03T12:43:54;27.50;49.80
20091;DHT22;10205;49.678;6.560;2022-09-03T12:46:24;27.40;49.70
20091;DHT22;10205;49.678;6.560;2022-09-03T12:48:56;27.50;51.80
20091;DHT22;10205;49.678;6.560;2022-09-03T12:51:32;27.50;51.70
20091;DHT22;10205;49.678;6.560;2022-09-03T12:54:02;27.50;50.00
20091;DHT22;10205;49.678;6.560;2022-09-03T12:56:34;27.50;50.00
20091;DHT22;10205;49.678;6.560;2022-09-03T12:59:09;27.50;50.50
20091;DHT22;10205;49.678;6.560;2022-09-03T13:01:44;27.50;50.80
20091;DHT22;10205;49.678;6.560;2022-09-03T13:04:18;27.50;50.30
20091;DHT22;10205;49.678;6.560;2022-09-03T13:06:55;27.50;49.70
20091;DHT22;10205;49.678;6.560;2022-09-03T13:09:30;27.50;50.20
20091;DHT22;10205;49.678;6.560;2022-09-03T13:12:01;27.50;49.90
20091;DHT22;10205;49.678;6.560;2022-09-03T13:14:40;27.50;51.10
20091;DHT22;10205;49.678;6.560;2022-09-03T13:17:21;27.50;52.00
20091;DHT22;10205;49.678;6.560;2022-09-03T13:20:20;27.50;50.00
20091;DHT22;10205;49.678;6.560;2022-09-03T13:23:06;27.50;50.00
20091;DHT22;10205;49.678;6.560;2022-09-03T13:25:49;27.50;49.90
20091;DHT22;10205;49.678;6.560;2022-09-03T13:28:36;27.50;51.70
20091;DHT22;10205;49.678;6.560;2022-09-03T13:31:25;27.50;50.20
20091;DHT22;10205;49.678;6.560;2022-09-03T13:34:02;27.50;52.30
20091;DHT22;10205;49.678;6.560;2022-09-03T13:36:40;27.50;52.60
20091;DHT22;10205;49.678;6.560;2022-09-03T13:39:20;27.50;50.40
20091;DHT22;10205;49.678;6.560;2022-09-03T13:41:55;27.50;50.40
20091;DHT22;10205;49.678;6.560;2022-09-03T13:44:37;27.50;50.00
20091;DHT22;10205;49.678;6.560;2022-09-03T13:47:17;27.50;51.80
20091;DHT22;10205;49.678;6.560;2022-09-03T13:49:57;27.50;51.20
20091;DHT22;10205;49.678;6.560;2022-09-03T13:52:50;27.50;53.00
20091;DHT22;10205;49.678;6.560;2022-09-03T13:55:26;27.50;50.60
20091;DHT22;10205;49.678;6.560;2022-09-03T13:58:03;27.50;51.70
20091;DHT22;10205;49.678;6.560;2022-09-03T14:00:39;27.50;52.80
20091;DHT22;10205;49.678;6.560;2022-09-03T14:03:15;27.50;52.30
20091;DHT22;10205;49.678;6.560;2022-09-03T14:05:59;27.50;51.70
20091;DHT22;10205;49.678;6.560;2022-09-03T14:08:34;27.50;52.10
20091;DHT22;10205;49.678;6.560;2022-09-03T14:11:22;27.60;51.60
20091;DHT22;10205;49.678;6.560;2022-09-03T14:14:05;27.60;52.10
20091;DHT22;10205;49.678;6.560;2022-09-03T14:16:45;27.60;51.10
20091;DHT22;10205;49.678;6.560;2022-09-03T14:19:31;27.60;52.00
20091;DHT22;10205;49.678;6.560;2022-09-03T14:22:05;27.60;51.50
20091;DHT22;10205;49.678;6.560;2022-09-03T14:24:45;27.60;52.90
20091;DHT22;10205;49.678;6.560;2022-09-03T14:27:22;27.60;52.10
20091;DHT22;10205;49.678;6.560;2022-09-03T14:29:56;27.60;51.70
20091;DHT22;10205;49.678;6.560;2022-09-03T14:32:34;27.60;52.00
20091;DHT22;10205;49.678;6.560;2022-09-03T14:35:34;27.60;52.60
20091;DHT22;10205;49.678;6.560;2022-09-03T14:38:36;27.60;52.20
20091;DHT22;10205;49.678;6.560;2022-09-03T14:41:28;27.70;51.80
20091;DHT22;10205;49.678;6.560;2022-09-03T14:44:32;27.70;51.30
20091;DHT22;10205;49.678;6.560;2022-09-03T14:47:28;27.70;50.90
20091;DHT22;10205;49.678;6.560;2022-09-03T14:50:15;27.70;50.50
20091;DHT22;10205;49.678;6.560;2022-09-03T14:53:27;27.70;51.60
20091;DHT22;10205;49.678;6.560;2022-09-03T14:56:32;27.60;50.90
20091;DHT22;10205;49.678;6.560;2022-09-03T15:02:42;27.60;50.80
20091;DHT22;10205;49.678;6.560;2022-09-03T15:05:39;27.50;51.00
20091;DHT22;10205;49.678;6.560;2022-09-03T15:08:27;27.50;51.60
20091;DHT22;10205;49.678;6.560;2022-09-03T15:11:14;27.60;50.70
20091;DHT22;10205;49.678;6.560;2022-09-03T15:13:47;27.50;50.90
20091;DHT22;10205;49.678;6.560;2022-09-03T15:16:36;27.50;51.00
20091;DHT22;10205;49.678;6.560;2022-09-03T15:19:25;27.50;51.10
20091;DHT22;10205;49.678;6.560;2022-09-03T15:22:13;27.50;51.40
20091;DHT22;10205;49.678;6.560;2022-09-03T15:24:55;27.50;52.20
20091;DHT22;10205;49.678;6.560;2022-09-03T15:30:35;27.50;51.00
20091;DHT22;10205;49.678;6.560;2022-09-03T15:33:18;27.50;50.50
20091;DHT22;10205;49.678;6.560;2022-09-03T15:36:05;27.60;50.40
20091;DHT22;10205;49.678;6.560;2022-09-03T15:38:48;27.60;49.80
20091;DHT22;10205;49.678;6.560;2022-09-03T15:41:29;27.60;49.60
20091;DHT22;10205;49.678;6.560;2022-09-03T15:44:07;27.60;50.60
20091;DHT22;10205;49.678;6.560;2022-09-03T15:46:55;27.60;49.80
20091;DHT22;10205;49.678;6.560;2022-09-03T15:49:35;27.60;49.50
20091;DHT22;10205;49.678;6.560;2022-09-03T15:52:26;27.60;49.80
20091;DHT22;10205;49.678;6.560;2022-09-03T15:55:07;27.60;49.80
20091;DHT22;10205;49.678;6.560;2022-09-03T15:57:44;27.60;50.30
20091;DHT22;10205;49.678;6.560;2022-09-03T16:00:18;27.60;49.70
20091;DHT22;10205;49.678;6.560;2022-09-03T16:02:50;27.60;49.60
20091;DHT22;10205;49.678;6.560;2022-09-03T16:05:34;27.60;49.60
20091;DHT22;10205;49.678;6.560;2022-09-03T16:08:12;27.50;49.80
20091;DHT22;10205;49.678;6.560;2022-09-03T16:10:56;27.50;49.80
20091;DHT22;10205;49.678;6.560;2022-09-03T16:16:28;27.40;50.00
20091;DHT22;10205;49.678;6.560;2022-09-03T16:19:12;27.40;49.90
20091;DHT22;10205;49.678;6.560;2022-09-03T16:21:47;27.50;49.90
20091;DHT22;10205;49.678;6.560;2022-09-03T16:24:23;27.40;49.90
20091;DHT22;10205;49.678;6.560;2022-09-03T16:26:58;27.50;49.70
20091;DHT22;10205;49.678;6.560;2022-09-03T16:29:30;27.40;49.70
20091;DHT22;10205;49.678;6.560;2022-09-03T16:32:11;27.50;49.80
20091;DHT22;10205;49.678;6.560;2022-09-03T16:34:58;27.40;49.60
20091;DHT22;10205;49.678;6.560;2022-09-03T16:37:50;27.50;50.00
20091;DHT22;10205;49.678;6.560;2022-09-03T16:40:32;27.50;49.30
20091;DHT22;10205;49.678;6.560;2022-09-03T16:43:10;27.50;49.10
20091;DHT22;10205;49.678;6.560;2022-09-03T16:45:56;27.50;49.30
20091;DHT22;10205;49.678;6.560;2022-09-03T16:48:40;27.50;49.10
20091;DHT22;10205;49.678;6.560;2022-09-03T16:51:26;27.50;48.80